Time;durP1;ratioP1;P1;durP2;ratioP2;P2;SDS_P1;SDS_P2;PMS_P1;PMS_P2;Temp;Humidity;BMP_temperature;BMP_pressure;BME280_temperature;BME280_humidity;BME280_pressure;Samples;Min_cycle;Max_cycle;Signal;HPM_P1;HPM_P2
2021/05/04 00:02:03;;;;;;;12.80;11.70;;;5.50;1.00;;;;;;5116987;28;20227;-78
2021/05/04 00:04:29;;;;;;;12.98;11.85;;;5.50;1.00;;;;;;5095655;27;20231;-80
2021/05/04 00:06:56;;;;;;;13.63;12.35;;;5.50;1.00;;;;;;5099333;28;20216;-79
2021/05/04 00:09:23;;;;;;;13.63;12.35;;;5.50;1.00;;;;;;5114255;28;20690;-78
2021/05/04 00:11:49;;;;;;;13.25;11.70;;;5.60;1.00;;;;;;5098233;28;20209;-79
2021/05/04 00:14:16;;;;;;;14.75;13.38;;;5.50;1.00;;;;;;5111235;28;20221;-79
2021/05/04 00:16:42;;;;;;;11.80;10.70;;;5.50;1.00;;;;;;5093347;28;20256;-79
2021/05/04 00:19:08;;;;;;;11.93;10.70;;;5.50;1.00;;;;;;5106600;28;20204;-79
2021/05/04 00:21:34;;;;;;;11.90;10.90;;;5.50;1.00;;;;;;5092478;28;20228;-79
2021/05/04 00:24:02;;;;;;;12.90;11.82;;;5.50;1.00;;;;;;5096923;28;20227;-79
2021/05/04 00:26:28;;;;;;;11.60;10.70;;;5.60;1.00;;;;;;5098764;28;20279;-79
2021/05/04 00:28:54;;;;;;;12.20;11.20;;;5.60;1.00;;;;;;5106921;28;20299;-79
2021/05/04 00:31:20;;;;;;;11.63;10.63;;;5.60;1.00;;;;;;5095645;28;20223;-78
2021/05/04 00:33:47;;;;;;;12.68;11.20;;;5.70;1.00;;;;;;5090489;28;20224;-78
2021/05/04 00:36:14;;;;;;;10.65;9.70;;;5.70;1.00;;;;;;5071602;28;20225;-78
2021/05/04 00:38:40;;;;;;;11.07;10.18;;;5.70;1.00;;;;;;5074108;28;20220;-78
2021/05/04 00:41:07;;;;;;;11.75;10.65;;;5.70;1.00;;;;;;5078676;28;20220;-79
2021/05/04 00:43:34;;;;;;;10.43;9.63;;;5.70;1.00;;;;;;5070912;28;20227;-76
2021/05/04 00:46:01;;;;;;;11.02;9.93;;;5.70;1.00;;;;;;5105633;28;20216;-76
2021/05/04 00:48:29;;;;;;;11.45;10.45;;;5.80;1.00;;;;;;5086815;28;20226;-79
2021/05/04 00:50:57;;;;;;;10.43;9.43;;;5.80;1.00;;;;;;5082325;28;20248;-80
2021/05/04 00:53:23;;;;;;;9.98;9.05;;;5.90;1.00;;;;;;5077467;28;20229;-79
2021/05/04 00:55:51;;;;;;;10.63;9.73;;;5.90;1.00;;;;;;5082391;28;20224;-79
2021/05/04 00:58:18;;;;;;;9.98;9.18;;;5.90;1.00;;;;;;5085248;28;20228;-78
2021/05/04 01:00:45;;;;;;;9.48;8.68;;;6.00;1.00;;;;;;5074071;28;20226;-78
2021/05/04 01:03:12;;;;;;;9.65;8.85;;;6.00;1.00;;;;;;5078591;28;20230;-79
2021/05/04 01:05:39;;;;;;;9.55;8.75;;;6.00;1.00;;;;;;5073505;28;20248;-79
2021/05/04 01:08:05;;;;;;;9.90;9.13;;;6.10;1.00;;;;;;5070688;28;20224;-78
2021/05/04 01:10:31;;;;;;;10.35;8.48;;;6.10;1.00;;;;;;5076543;28;21123;-80
2021/05/04 01:12:58;;;;;;;9.10;8.30;;;6.20;1.00;;;;;;5064835;28;20221;-79
2021/05/04 01:15:25;;;;;;;9.70;8.70;;;6.20;1.00;;;;;;5097676;28;20244;-76
2021/05/04 01:17:52;;;;;;;9.02;8.32;;;6.30;1.00;;;;;;5098287;28;20283;-77
2021/05/04 01:20:19;;;;;;;8.55;7.75;;;6.30;1.00;;;;;;5082853;28;20240;-78
2021/05/04 01:22:46;;;;;;;8.90;8.05;;;6.30;1.00;;;;;;5057073;28;20232;-76
2021/05/04 01:25:13;;;;;;;10.50;8.40;;;6.30;1.00;;;;;;5088909;27;20303;-77
2021/05/04 01:27:39;;;;;;;8.65;7.50;;;6.30;1.00;;;;;;5062368;28;20276;-77
2021/05/04 01:30:07;;;;;;;7.93;7.22;;;6.40;1.00;;;;;;5064722;28;20315;-79
2021/05/04 01:32:33;;;;;;;8.38;7.78;;;6.40;1.00;;;;;;5065033;28;20221;-77
2021/05/04 01:34:59;;;;;;;9.20;8.40;;;6.40;1.00;;;;;;5066318;28;20221;-77
2021/05/04 01:37:25;;;;;;;8.95;8.05;;;6.40;1.00;;;;;;5078963;28;20243;-75
2021/05/04 01:39:53;;;;;;;9.25;8.45;;;6.40;1.00;;;;;;5064494;28;20705;-78
2021/05/04 01:42:21;;;;;;;8.10;7.40;;;6.50;1.00;;;;;;5075589;28;20735;-76
2021/05/04 01:44:47;;;;;;;8.35;7.55;;;6.50;1.00;;;;;;5080617;28;20216;-77
2021/05/04 01:47:14;;;;;;;8.40;7.70;;;6.50;1.00;;;;;;5072898;28;20228;-77
2021/05/04 01:49:41;;;;;;;8.18;7.47;;;6.60;1.00;;;;;;5070477;27;20240;-78
2021/05/04 01:52:09;;;;;;;7.80;6.97;;;6.60;1.00;;;;;;5075944;28;20723;-79
2021/05/04 01:54:35;;;;;;;8.05;7.25;;;6.70;1.00;;;;;;5060049;28;22435;-78
2021/05/04 01:57:03;;;;;;;7.40;6.80;;;6.60;1.00;;;;;;5064877;28;20220;-78
2021/05/04 01:59:30;;;;;;;8.43;7.72;;;6.70;1.00;;;;;;5075623;28;20320;-76
2021/05/04 02:01:57;;;;;;;7.03;6.35;;;6.70;1.00;;;;;;5074073;28;20227;-79
2021/05/04 02:04:24;;;;;;;6.97;6.40;;;6.60;1.00;;;;;;5069544;28;20225;-79
2021/05/04 02:06:50;;;;;;;7.93;7.05;;;6.70;1.00;;;;;;5078029;28;20242;-77
2021/05/04 02:09:17;;;;;;;7.80;6.90;;;6.70;1.00;;;;;;5068405;28;20220;-77
2021/05/04 02:11:44;;;;;;;7.60;7.00;;;6.70;1.00;;;;;;5069298;28;20864;-77
2021/05/04 02:14:11;;;;;;;7.13;6.63;;;6.80;1.00;;;;;;5060605;28;20218;-79
2021/05/04 02:16:37;;;;;;;7.25;6.55;;;6.80;1.00;;;;;;5089474;28;20231;-78
2021/05/04 02:19:04;;;;;;;7.97;7.18;;;6.80;1.00;;;;;;5094892;28;20245;-77
2021/05/04 02:21:30;;;;;;;8.32;7.00;;;6.80;1.00;;;;;;5096362;28;20285;-77
2021/05/04 02:23:57;;;;;;;7.28;6.68;;;6.80;1.00;;;;;;5081741;28;20254;-78
2021/05/04 02:26:23;;;;;;;6.68;6.18;;;6.90;1.00;;;;;;5070670;28;20311;-78
2021/05/04 02:28:50;;;;;;;7.28;6.60;;;6.90;1.00;;;;;;5065331;28;20315;-79
2021/05/04 02:31:17;;;;;;;7.07;6.53;;;6.90;1.00;;;;;;5058101;28;20264;-79
2021/05/04 02:33:44;;;;;;;7.40;6.80;;;6.90;1.00;;;;;;5066313;28;20228;-77
2021/05/04 02:36:17;;;;;;;7.25;6.65;;;6.90;1.00;;;;;;5062555;28;20229;-77
2021/05/04 02:38:43;;;;;;;7.30;6.60;;;7.00;1.00;;;;;;5078815;28;20270;-76
2021/05/04 02:41:10;;;;;;;7.55;6.90;;;7.00;1.00;;;;;;5077422;28;20741;-77
2021/05/04 02:43:37;;;;;;;7.05;6.50;;;7.10;1.00;;;;;;5083542;28;20248;-77
2021/05/04 02:46:06;;;;;;;7.70;7.10;;;7.10;1.00;;;;;;5079039;28;20255;-76
2021/05/04 02:48:38;;;;;;;7.20;6.50;;;7.10;1.00;;;;;;5079170;28;20254;-78
2021/05/04 02:51:06;;;;;;;7.55;6.72;;;7.10;1.00;;;;;;5069558;28;20220;-78
2021/05/04 02:53:32;;;;;;;7.72;7.05;;;7.10;1.00;;;;;;5079475;28;20224;-78
2021/05/04 02:56:00;;;;;;;7.88;7.28;;;7.10;1.00;;;;;;5069623;28;20301;-76
2021/05/04 02:58:27;;;;;;;7.38;6.63;;;7.10;1.00;;;;;;5088992;28;20231;-77
2021/05/04 03:00:55;;;;;;;8.80;8.00;;;7.10;1.00;;;;;;5074514;28;20283;-77
2021/05/04 03:03:22;;;;;;;7.50;6.85;;;7.10;1.00;;;;;;5078606;28;20286;-77
2021/05/04 03:05:49;;;;;;;8.18;7.32;;;7.20;1.00;;;;;;5081374;28;20240;-79
2021/05/04 03:08:16;;;;;;;7.88;7.20;;;7.20;1.00;;;;;;5074164;28;20224;-80
2021/05/04 03:10:42;;;;;;;8.65;7.72;;;7.20;1.00;;;;;;5076115;28;20340;-80
2021/05/04 03:13:08;;;;;;;8.48;7.78;;;7.20;1.00;;;;;;5084441;28;20196;-78
2021/05/04 03:15:35;;;;;;;8.13;7.43;;;7.20;1.00;;;;;;5087778;27;20212;-77
2021/05/04 03:18:01;;;;;;;9.05;7.05;;;7.10;1.00;;;;;;5090508;28;20228;-78
2021/05/04 03:20:27;;;;;;;10.65;8.45;;;7.10;1.00;;;;;;5079874;28;20308;-76
2021/05/04 03:22:54;;;;;;;9.85;8.35;;;7.10;1.00;;;;;;5076287;28;20312;-78
2021/05/04 03:25:21;;;;;;;11.25;9.35;;;7.00;1.00;;;;;;5079163;28;20224;-78
2021/05/04 03:27:47;;;;;;;9.25;8.45;;;6.90;1.00;;;;;;5079422;28;20221;-77
2021/05/04 03:30:14;;;;;;;9.30;8.50;;;6.90;1.00;;;;;;5071629;28;20230;-77
2021/05/04 03:32:42;;;;;;;9.48;8.68;;;6.90;1.00;;;;;;5076409;28;20247;-78
2021/05/04 03:35:09;;;;;;;10.13;9.18;;;6.90;1.00;;;;;;5074248;28;20224;-77
2021/05/04 03:37:35;;;;;;;8.75;7.60;;;6.90;1.00;;;;;;5065354;28;20271;-79
2021/05/04 03:40:04;;;;;;;8.80;8.00;;;6.90;1.00;;;;;;5073359;28;20381;-80
2021/05/04 03:42:30;;;;;;;9.13;8.25;;;6.90;1.00;;;;;;5068738;28;20893;-79
2021/05/04 03:44:56;;;;;;;8.73;7.85;;;7.00;1.00;;;;;;5079883;28;20238;-79
2021/05/04 03:47:22;;;;;;;9.50;8.50;;;7.00;1.00;;;;;;5065450;28;20295;-80
2021/05/04 03:49:48;;;;;;;9.05;8.25;;;7.10;1.00;;;;;;5068661;28;20232;-79
2021/05/04 03:52:15;;;;;;;10.30;9.30;;;7.10;1.00;;;;;;5072193;28;20220;-78
2021/05/04 03:54:41;;;;;;;10.10;9.07;;;7.20;1.00;;;;;;5082514;28;20723;-80
2021/05/04 03:57:08;;;;;;;11.00;10.00;;;7.30;1.00;;;;;;5087652;28;20250;-80
2021/05/04 03:59:34;;;;;;;8.20;7.50;;;7.40;1.00;;;;;;5087802;28;20331;-80
2021/05/04 04:02:01;;;;;;;9.60;8.70;;;7.40;1.00;;;;;;5088074;28;20414;-80
2021/05/04 04:04:27;;;;;;;9.15;8.20;;;7.50;1.00;;;;;;5091078;28;20246;-80
2021/05/04 04:06:53;;;;;;;9.80;7.97;;;7.50;1.00;;;;;;5084428;28;20275;-79
2021/05/04 04:09:19;;;;;;;9.55;8.75;;;7.50;1.00;;;;;;5063752;28;20228;-80
2021/05/04 04:11:46;;;;;;;8.15;7.40;;;7.60;1.00;;;;;;5094493;28;21009;-79
2021/05/04 04:14:13;;;;;;;9.52;8.52;;;7.60;1.00;;;;;;5069958;28;21038;-80
2021/05/04 04:16:39;;;;;;;9.77;7.88;;;7.60;1.00;;;;;;5085217;28;20738;-79
2021/05/04 04:19:07;;;;;;;9.30;8.40;;;7.70;1.00;;;;;;5078121;28;20222;-80
2021/05/04 04:21:34;;;;;;;9.02;8.15;;;7.80;1.00;;;;;;5080644;28;20246;-78
2021/05/04 04:24:01;;;;;;;9.10;8.25;;;7.80;1.00;;;;;;5082201;28;20220;-79
2021/05/04 04:26:27;;;;;;;9.05;8.15;;;7.80;1.00;;;;;;5079064;28;20318;-80
2021/05/04 04:28:53;;;;;;;10.15;7.60;;;7.90;1.00;;;;;;5066906;28;20299;-78
2021/05/04 04:31:22;;;;;;;9.32;7.25;;;8.00;1.00;;;;;;5092313;28;20683;-80
2021/05/04 04:33:49;;;;;;;9.77;7.97;;;8.00;1.00;;;;;;5082818;28;20236;-80
2021/05/04 04:36:15;;;;;;;9.43;8.55;;;8.10;1.00;;;;;;5085887;28;20227;-79
2021/05/04 04:38:41;;;;;;;8.98;8.07;;;8.10;1.00;;;;;;5076146;28;20222;-79
2021/05/04 04:41:07;;;;;;;8.90;8.20;;;8.10;1.00;;;;;;5069461;28;20229;-79
2021/05/04 04:43:34;;;;;;;8.43;7.55;;;8.10;1.00;;;;;;5065492;28;20251;-79
2021/05/04 04:46:00;;;;;;;8.50;7.72;;;8.20;1.00;;;;;;5099005;28;20232;-76
2021/05/04 04:48:27;;;;;;;11.55;7.95;;;8.20;1.00;;;;;;5091951;27;20293;-79
2021/05/04 04:50:53;;;;;;;9.65;8.85;;;8.20;1.00;;;;;;5066494;28;20240;-78
2021/05/04 04:53:20;;;;;;;8.75;7.97;;;8.20;1.00;;;;;;5064436;28;20232;-78
2021/05/04 04:55:46;;;;;;;10.85;8.60;;;8.30;1.00;;;;;;5072299;28;20231;-78
2021/05/04 04:58:12;;;;;;;8.48;7.72;;;8.20;1.00;;;;;;5090397;28;20228;-79
2021/05/04 05:00:39;;;;;;;8.40;7.70;;;8.30;1.00;;;;;;5079215;28;20215;-79
2021/05/04 05:03:05;;;;;;;8.30;7.60;;;8.30;1.00;;;;;;5095534;28;20276;-77
2021/05/04 05:05:32;;;;;;;9.63;6.85;;;8.30;1.00;;;;;;5088278;28;20235;-80
2021/05/04 05:07:58;;;;;;;8.80;7.63;;;8.40;1.00;;;;;;5058836;28;20229;-78
2021/05/04 05:10:25;;;;;;;8.02;7.25;;;8.40;1.00;;;;;;5071545;28;20235;-80
2021/05/04 05:12:53;;;;;;;8.20;7.38;;;8.40;1.00;;;;;;5081643;28;20223;-82
2021/05/04 05:15:20;;;;;;;8.15;7.45;;;8.40;1.00;;;;;;5073407;28;20464;-79
2021/05/04 05:17:47;;;;;;;9.00;7.97;;;8.50;1.00;;;;;;5079933;28;20216;-79
2021/05/04 05:20:14;;;;;;;8.47;7.67;;;8.40;1.00;;;;;;5034400;28;624342;-82
2021/05/04 05:22:44;;;;;;;6.70;6.10;;;8.40;1.00;;;;;;5075210;28;20220;-83
2021/05/04 05:25:12;;;;;;;8.80;7.47;;;8.40;1.00;;;;;;5062701;28;20250;-79
2021/05/04 05:27:39;;;;;;;6.90;6.30;;;8.40;1.00;;;;;;5067416;28;20304;-82
2021/05/04 05:30:08;;;;;;;7.95;7.10;;;8.40;1.00;;;;;;5089313;28;20229;-82
2021/05/04 05:32:36;;;;;;;7.22;6.63;;;8.40;1.00;;;;;;5104172;27;21839;-77
2021/05/04 05:35:04;;;;;;;7.10;6.40;;;8.50;1.00;;;;;;5057968;28;21737;-77
2021/05/04 05:37:30;;;;;;;7.90;6.88;;;8.50;1.00;;;;;;5070624;28;20223;-77
2021/05/04 05:39:57;;;;;;;8.43;7.57;;;8.60;1.00;;;;;;5074846;28;20228;-78
2021/05/04 05:42:23;;;;;;;8.63;7.10;;;8.60;1.00;;;;;;5080285;28;20336;-79
2021/05/04 05:44:49;;;;;;;8.70;7.88;;;8.70;1.00;;;;;;5076021;28;20233;-77
2021/05/04 05:47:15;;;;;;;8.98;7.50;;;8.80;1.00;;;;;;5053617;28;20636;-78
2021/05/04 05:49:42;;;;;;;12.23;7.13;;;8.90;1.00;;;;;;5055142;28;20304;-77
2021/05/04 05:52:09;;;;;;;7.90;7.10;;;9.00;1.00;;;;;;5078151;28;20238;-78
2021/05/04 05:54:36;;;;;;;8.25;7.53;;;9.10;1.00;;;;;;5064031;28;21256;-79
2021/05/04 05:57:04;;;;;;;7.93;7.13;;;9.10;1.00;;;;;;5085249;28;20302;-78
2021/05/04 05:59:30;;;;;;;8.25;7.55;;;9.30;1.00;;;;;;5096816;28;20223;-77
2021/05/04 06:01:56;;;;;;;8.05;7.35;;;9.40;1.00;;;;;;5098361;28;20365;-78
2021/05/04 06:04:23;;;;;;;8.90;8.00;;;9.50;1.00;;;;;;5071073;28;20229;-76
2021/05/04 06:06:49;;;;;;;8.52;7.55;;;9.50;1.00;;;;;;5087235;28;20236;-79
2021/05/04 06:09:16;;;;;;;10.23;7.53;;;9.60;1.00;;;;;;5085941;28;20216;-79
2021/05/04 06:11:42;;;;;;;8.52;7.18;;;9.70;1.00;;;;;;5054413;28;20367;-78
2021/05/04 06:14:09;;;;;;;7.35;6.65;;;9.70;1.00;;;;;;5070704;28;20228;-78
2021/05/04 06:16:36;;;;;;;8.30;7.25;;;9.90;1.00;;;;;;5074600;28;20236;-77
2021/05/04 06:19:03;;;;;;;13.65;7.43;;;10.00;1.00;;;;;;5067887;28;21124;-78
2021/05/04 06:21:29;;;;;;;8.02;7.00;;;10.20;1.00;;;;;;5069938;28;21692;-77
2021/05/04 06:23:55;;;;;;;11.95;7.18;;;10.40;1.00;;;;;;5052125;28;20225;-76
2021/05/04 06:26:22;;;;;;;9.02;6.40;;;10.60;1.00;;;;;;5061069;28;20880;-76
2021/05/04 06:28:49;;;;;;;9.75;6.90;;;10.60;1.00;;;;;;5065348;28;21155;-76
2021/05/04 06:31:18;;;;;;;11.38;10.20;;;10.70;1.00;;;;;;5065803;28;20232;-76
2021/05/04 06:33:45;;;;;;;8.15;7.40;;;10.80;1.00;;;;;;5066400;28;20313;-76
2021/05/04 06:36:12;;;;;;;10.93;7.13;;;11.10;1.00;;;;;;5069561;28;20244;-78
2021/05/04 06:38:38;;;;;;;15.88;7.00;;;11.20;1.00;;;;;;5052379;28;20225;-77
2021/05/04 06:41:04;;;;;;;13.02;6.55;;;11.30;1.00;;;;;;5069738;28;20416;-77
2021/05/04 06:43:31;;;;;;;9.93;6.68;;;11.50;1.00;;;;;;5065921;28;20232;-76
2021/05/04 06:45:57;;;;;;;7.88;6.25;;;11.50;1.00;;;;;;5086436;28;22439;-78
2021/05/04 06:48:24;;;;;;;6.80;6.20;;;11.60;1.00;;;;;;5075261;28;20311;-76
2021/05/04 06:50:51;;;;;;;8.38;6.60;;;11.70;1.00;;;;;;5070602;28;20236;-78
2021/05/04 06:53:18;;;;;;;7.07;5.95;;;11.90;1.00;;;;;;5059867;28;20220;-79
2021/05/04 06:55:46;;;;;;;6.57;5.90;;;12.00;1.00;;;;;;5085741;28;20215;-79
2021/05/04 06:58:13;;;;;;;6.28;5.68;;;12.10;1.00;;;;;;5088436;28;20421;-79
2021/05/04 07:00:39;;;;;;;6.18;5.57;;;12.20;1.00;;;;;;5084978;28;20236;-77
2021/05/04 07:03:06;;;;;;;5.45;4.95;;;12.20;1.00;;;;;;5077104;28;20320;-77
2021/05/04 07:05:33;;;;;;;5.97;5.47;;;12.30;1.00;;;;;;5069666;28;20323;-77
2021/05/04 07:07:59;;;;;;;5.87;5.37;;;12.40;1.00;;;;;;5071429;28;20419;-76
2021/05/04 07:10:26;;;;;;;5.53;5.03;;;12.40;1.00;;;;;;5078234;28;21338;-76
2021/05/04 07:12:52;;;;;;;9.23;5.60;;;12.50;1.00;;;;;;5065866;28;20222;-76
2021/05/04 07:15:21;;;;;;;5.60;5.00;;;12.50;1.00;;;;;;5067504;28;20246;-76
2021/05/04 07:17:48;;;;;;;6.28;5.68;;;12.50;1.00;;;;;;5062412;28;20431;-77
2021/05/04 07:20:18;;;;;;;6.10;5.27;;;12.50;1.00;;;;;;5069234;28;20228;-77
2021/05/04 07:22:55;;;;;;;6.13;5.45;;;12.50;1.00;;;;;;5078786;28;20411;-79
2021/05/04 07:25:21;;;;;;;5.70;5.10;;;12.50;1.00;;;;;;5073062;28;20297;-77
2021/05/04 07:27:47;;;;;;;6.07;5.00;;;12.50;1.00;;;;;;5062022;28;21999;-78
2021/05/04 07:30:16;;;;;;;10.83;6.13;;;12.50;1.00;;;;;;5082683;28;20438;-79
2021/05/04 07:32:42;;;;;;;7.20;5.83;;;12.50;1.00;;;;;;5080378;28;20464;-78
2021/05/04 07:35:10;;;;;;;7.93;6.50;;;12.50;1.00;;;;;;5086388;28;20412;-79
2021/05/04 07:37:41;;;;;;;6.53;5.73;;;12.40;1.00;;;;;;5098084;28;20443;-80
2021/05/04 07:40:14;;;;;;;5.90;5.40;;;12.50;1.00;;;;;;5094488;28;20466;-77
2021/05/04 07:42:43;;;;;;;6.30;5.80;;;12.40;1.00;;;;;;5090276;28;20552;-79
2021/05/04 07:45:11;;;;;;;7.80;5.77;;;12.50;1.00;;;;;;5094890;28;20447;-77
2021/05/04 07:47:41;;;;;;;9.00;5.60;;;12.50;1.00;;;;;;5091651;28;20466;-78
2021/05/04 07:50:11;;;;;;;5.83;5.13;;;12.40;1.00;;;;;;5077669;28;20474;-78
2021/05/04 07:52:38;;;;;;;5.53;5.03;;;12.20;1.00;;;;;;5084936;28;20486;-79
2021/05/04 07:55:06;;;;;;;5.63;4.90;;;12.00;1.00;;;;;;5094504;28;20450;-77
2021/05/04 07:57:33;;;;;;;6.72;5.68;;;11.60;1.00;;;;;;5094037;28;20424;-78
2021/05/04 07:59:59;;;;;;;5.90;5.40;;;11.30;1.00;;;;;;5108348;28;20232;-78
2021/05/04 08:02:26;;;;;;;6.05;5.45;;;11.00;1.00;;;;;;5113700;28;20217;-76
2021/05/04 08:04:53;;;;;;;6.22;5.65;;;10.70;1.00;;;;;;5105189;28;20232;-76
2021/05/04 08:07:19;;;;;;;7.30;5.80;;;10.40;1.00;;;;;;5093299;28;20220;-77
2021/05/04 08:09:45;;;;;;;6.07;5.47;;;10.20;1.00;;;;;;5092265;28;20286;-76
2021/05/04 08:12:12;;;;;;;6.85;6.25;;;10.00;1.00;;;;;;5080399;28;20228;-77
2021/05/04 08:14:39;;;;;;;8.55;7.70;;;9.90;1.00;;;;;;5089091;28;20224;-75
2021/05/04 08:17:11;;;;;;;7.60;6.90;;;9.80;1.00;;;;;;5077644;28;20232;-76
2021/05/04 08:19:37;;;;;;;7.93;7.22;;;9.80;1.00;;;;;;5069792;28;20237;-76
2021/05/04 08:22:04;;;;;;;6.88;6.28;;;9.90;1.00;;;;;;5061176;28;20231;-76
2021/05/04 08:24:30;;;;;;;8.85;6.55;;;10.00;1.00;;;;;;5075689;28;20221;-78
2021/05/04 08:26:57;;;;;;;7.70;7.00;;;10.10;1.00;;;;;;5083948;28;20240;-78
2021/05/04 08:29:23;;;;;;;6.55;5.95;;;10.20;1.00;;;;;;5067552;28;20228;-77
2021/05/04 08:31:51;;;;;;;6.80;6.20;;;10.40;1.00;;;;;;5068264;28;20247;-76
2021/05/04 08:34:20;;;;;;;6.40;5.90;;;10.50;1.00;;;;;;5064664;28;20229;-77
2021/05/04 08:36:47;;;;;;;6.30;5.70;;;10.70;1.00;;;;;;5086449;28;20234;-76
2021/05/04 08:39:13;;;;;;;5.70;5.20;;;10.90;1.00;;;;;;5081554;28;20227;-76
2021/05/04 08:41:42;;;;;;;6.03;5.43;;;11.10;1.00;;;;;;5078183;28;20262;-76
2021/05/04 08:44:14;;;;;;;5.70;5.20;;;11.20;1.00;;;;;;5101958;28;20232;-77
2021/05/04 08:46:40;;;;;;;12.20;6.05;;;11.30;1.00;;;;;;5110630;27;20408;-76
2021/05/04 08:49:07;;;;;;;5.70;5.20;;;11.30;1.00;;;;;;5105944;28;20204;-76
2021/05/04 08:51:36;;;;;;;5.45;5.05;;;11.30;1.00;;;;;;5110172;28;20344;-77
2021/05/04 08:54:04;;;;;;;6.25;5.75;;;11.40;1.00;;;;;;5104151;27;20254;-77
2021/05/04 08:56:30;;;;;;;5.20;4.80;;;11.40;1.00;;;;;;5105117;27;20249;-80
2021/05/04 08:58:56;;;;;;;5.50;5.10;;;11.50;1.00;;;;;;5100110;27;20450;-76
2021/05/04 09:01:22;;;;;;;4.95;4.53;;;11.70;1.00;;;;;;5102993;28;20316;-77
2021/05/04 09:03:50;;;;;;;5.03;4.63;;;11.80;1.00;;;;;;5206997;22;21096;-84
2021/05/04 09:06:28;;;;;;;5.83;5.23;;;11.90;1.00;;;;;;5084721;27;21407;-81
2021/05/04 09:09:05;;;;;;;5.43;4.93;;;12.20;1.00;;;;;;5102104;27;21659;-78
2021/05/04 09:11:41;;;;;;;4.70;4.13;;;12.60;1.00;;;;;;5102676;28;20443;-80
2021/05/04 09:14:14;;;;;;;4.40;4.00;;;12.90;1.00;;;;;;5102723;27;20428;-81
2021/05/04 09:16:48;;;;;;;5.90;5.00;;;13.00;1.00;;;;;;5103387;28;20387;-79
2021/05/04 09:21:45;;;;;;;4.57;4.17;;;13.10;1.00;;;;;;5098543;28;21475;-80
2021/05/04 09:24:23;;;;;;;4.80;4.37;;;13.20;1.00;;;;;;5106171;28;20419;-80
2021/05/04 09:26:56;;;;;;;5.93;5.20;;;13.20;1.00;;;;;;5102121;28;20476;-81
2021/05/04 09:29:28;;;;;;;4.47;4.07;;;13.30;1.00;;;;;;5095265;27;20925;-83
2021/05/04 09:32:07;;;;;;;5.57;3.70;;;13.30;1.00;;;;;;5057497;28;20427;-83
2021/05/04 09:34:44;;;;;;;6.07;4.17;;;13.40;1.00;;;;;;5083732;28;20465;-81
2021/05/04 09:37:32;;;;;;;4.00;3.70;;;13.50;1.00;;;;;;5069663;28;20588;-80
2021/05/04 09:40:22;;;;;;;3.60;3.30;;;13.80;1.00;;;;;;5083284;28;20466;-82
2021/05/04 09:43:03;;;;;;;7.43;3.43;;;14.10;1.00;;;;;;5166834;22;20439;-81
2021/05/04 09:45:30;;;;;;;3.87;3.50;;;14.60;1.00;;;;;;5057274;28;20463;-80
2021/05/04 09:48:21;;;;;;;4.83;3.63;;;15.50;1.00;;;;;;5075479;28;20513;-86
2021/05/04 09:50:58;;;;;;;3.17;2.80;;;16.10;1.00;;;;;;5077301;28;20486;-82
2021/05/04 09:53:37;;;;;;;3.03;2.83;;;16.40;1.00;;;;;;5078635;28;21345;-81
2021/05/04 09:56:04;;;;;;;3.33;3.00;;;16.60;1.00;;;;;;5087450;28;20434;-80
2021/05/04 09:58:49;;;;;;;4.20;3.03;;;16.40;1.00;;;;;;5068957;28;20454;-80
2021/05/04 10:01:17;;;;;;;7.37;3.50;;;16.40;1.00;;;;;;5059648;28;20469;-82
2021/05/04 10:03:46;;;;;;;4.43;3.50;;;17.00;1.00;;;;;;5066134;28;20549;-82
2021/05/04 10:06:14;;;;;;;3.80;3.20;;;18.00;1.00;;;;;;5070295;28;20524;-81
2021/05/04 10:08:41;;;;;;;3.57;2.60;;;18.80;1.00;;;;;;5070783;28;20433;-78
2021/05/04 10:11:09;;;;;;;6.30;3.57;;;18.80;1.00;;;;;;5078109;28;20502;-80
2021/05/04 10:13:37;;;;;;;3.73;3.30;;;18.40;1.00;;;;;;5075289;28;21201;-80
2021/05/04 10:16:05;;;;;;;5.73;2.83;;;17.90;1.00;;;;;;5088909;28;20513;-82
2021/05/04 10:18:31;;;;;;;11.03;3.37;;;17.70;1.00;;;;;;5087789;28;21182;-82
2021/05/04 10:20:59;;;;;;;2.97;2.70;;;17.90;1.00;;;;;;5069639;28;20447;-81
2021/05/04 10:23:30;;;;;;;2.57;2.37;;;17.50;1.00;;;;;;5064609;28;20416;-79
2021/05/04 10:26:00;;;;;;;12.20;3.13;;;17.20;1.00;;;;;;5071851;28;20444;-79
2021/05/04 10:28:33;;;;;;;7.80;3.40;;;17.20;1.00;;;;;;5063623;28;20485;-78
2021/05/04 10:31:00;;;;;;;3.83;2.13;;;17.90;1.00;;;;;;5081098;28;20456;-79
2021/05/04 10:33:30;;;;;;;6.83;2.43;;;18.30;1.00;;;;;;5084255;28;20443;-80
2021/05/04 10:35:56;;;;;;;9.80;2.87;;;17.90;1.00;;;;;;5085848;28;21496;-79
2021/05/04 10:38:24;;;;;;;4.80;2.77;;;17.30;1.00;;;;;;5068977;28;20474;-78
2021/05/04 10:41:05;;;;;;;9.20;2.80;;;17.00;1.00;;;;;;5070112;28;21039;-80
2021/05/04 10:43:40;;;;;;;3.63;2.80;;;17.10;1.00;;;;;;5070810;28;20447;-78
2021/05/04 10:46:12;;;;;;;7.07;3.03;;;17.00;1.00;;;;;;5093138;28;20443;-80
2021/05/04 10:48:45;;;;;;;4.70;2.30;;;16.70;1.00;;;;;;5091890;28;20489;-79
2021/05/04 10:51:13;;;;;;;3.80;2.27;;;16.40;1.00;;;;;;5069630;28;20486;-79
2021/05/04 10:54:02;;;;;;;3.73;2.57;;;16.30;1.00;;;;;;5061081;28;20928;-78
2021/05/04 10:56:38;;;;;;;5.90;2.63;;;16.20;1.00;;;;;;5072228;28;21455;-78
2021/05/04 10:59:06;;;;;;;7.33;2.70;;;16.00;1.00;;;;;;5068922;28;20442;-79
2021/05/04 11:01:33;;;;;;;4.53;2.30;;;16.00;1.00;;;;;;5068460;28;20451;-81
2021/05/04 11:04:00;;;;;;;5.80;2.50;;;16.00;1.00;;;;;;5055742;28;20441;-79
2021/05/04 11:06:49;;;;;;;6.33;2.43;;;15.90;1.00;;;;;;5061473;28;21042;-81
2021/05/04 11:09:20;;;;;;;3.90;2.37;;;15.80;1.00;;;;;;5068670;28;21884;-78
2021/05/04 11:11:51;;;;;;;7.13;3.50;;;15.60;1.00;;;;;;5055186;28;20486;-80
2021/05/04 11:14:34;;;;;;;5.10;2.70;;;15.60;1.00;;;;;;5078080;28;20448;-78
2021/05/04 11:17:11;;;;;;;8.63;2.73;;;16.00;1.00;;;;;;5053459;28;20470;-79
2021/05/04 11:19:41;;;;;;;2.97;2.20;;;16.40;1.00;;;;;;5069636;28;20450;-79
2021/05/04 11:22:25;;;;;;;5.73;2.53;;;16.50;1.00;;;;;;5069703;28;20444;-78
2021/05/04 11:24:54;;;;;;;6.00;2.83;;;16.70;1.00;;;;;;5068764;28;20442;-83
2021/05/04 11:27:25;;;;;;;7.23;2.70;;;16.60;1.00;;;;;;5071626;28;20474;-80
2021/05/04 11:29:53;;;;;;;5.43;2.30;;;16.90;1.00;;;;;;5072703;28;20505;-78
2021/05/04 11:32:21;;;;;;;4.70;2.67;;;17.70;1.00;;;;;;5068545;28;20439;-79
2021/05/04 11:34:54;;;;;;;3.07;2.70;;;17.80;1.00;;;;;;5068038;28;20448;-79
2021/05/04 11:37:41;;;;;;;3.97;1.80;;;17.70;1.00;;;;;;5071948;28;20476;-79
2021/05/04 11:40:14;;;;;;;4.07;2.23;;;17.50;1.00;;;;;;5066998;28;20547;-78
2021/05/04 11:42:42;;;;;;;3.63;2.43;;;17.40;1.00;;;;;;5060823;28;20459;-80
2021/05/04 11:45:11;;;;;;;7.23;3.03;;;17.80;1.00;;;;;;5082271;28;20415;-81
2021/05/04 11:47:40;;;;;;;6.00;2.30;;;17.60;1.00;;;;;;5071819;28;20465;-84
2021/05/04 11:50:10;;;;;;;6.40;2.37;;;17.40;1.00;;;;;;5071394;28;21151;-83
2021/05/04 11:52:37;;;;;;;5.57;2.40;;;17.10;1.00;;;;;;5077173;28;20433;-82
2021/05/04 11:55:14;;;;;;;4.30;3.13;;;16.80;1.00;;;;;;5081473;28;20505;-81
2021/05/04 11:57:43;;;;;;;4.90;2.53;;;16.30;1.00;;;;;;5088419;28;20453;-77
2021/05/04 12:00:11;;;;;;;4.93;2.40;;;16.10;1.00;;;;;;5066162;28;20426;-77
2021/05/04 12:02:38;;;;;;;2.30;2.10;;;16.00;1.00;;;;;;5054621;28;21244;-79
2021/05/04 12:05:06;;;;;;;2.77;2.20;;;15.70;1.00;;;;;;5069874;28;21163;-77
2021/05/04 12:07:37;;;;;;;7.63;2.63;;;15.50;1.00;;;;;;5053165;28;20516;-78
2021/05/04 12:10:19;;;;;;;3.00;2.10;;;15.30;1.00;;;;;;5072718;28;20471;-77
2021/05/04 12:12:47;;;;;;;2.60;2.27;;;15.20;1.00;;;;;;5075293;28;20465;-78
2021/05/04 12:15:17;;;;;;;2.83;2.63;;;15.20;1.00;;;;;;5076934;28;20548;-79
2021/05/04 12:17:44;;;;;;;5.60;2.23;;;15.30;1.00;;;;;;5078579;28;20508;-79
2021/05/04 12:20:12;;;;;;;3.20;2.40;;;15.30;1.00;;;;;;5083347;28;20474;-81
2021/05/04 12:22:46;;;;;;;2.77;2.03;;;15.30;1.00;;;;;;5084465;28;20469;-82
2021/05/04 12:25:14;;;;;;;2.77;2.33;;;15.10;1.00;;;;;;5067331;28;20442;-82
2021/05/04 12:27:41;;;;;;;4.67;2.77;;;14.90;1.00;;;;;;5080660;28;20480;-80
2021/05/04 12:30:12;;;;;;;3.73;2.70;;;14.80;1.00;;;;;;5089410;28;20546;-81
2021/05/04 12:32:40;;;;;;;2.87;2.17;;;14.80;1.00;;;;;;5079573;28;20447;-85
2021/05/04 12:35:18;;;;;;;3.40;2.17;;;14.80;1.00;;;;;;5076795;28;20447;-80
2021/05/04 12:37:47;;;;;;;3.00;2.33;;;14.80;1.00;;;;;;5096453;27;20444;-84
2021/05/04 12:40:17;;;;;;;3.10;2.73;;;14.80;1.00;;;;;;5111341;27;20433;-85
2021/05/04 12:42:46;;;;;;;3.93;3.23;;;14.90;1.00;;;;;;5086310;28;20419;-84
2021/05/04 12:45:15;;;;;;;3.13;2.57;;;14.90;1.00;;;;;;5082089;28;20483;-84
2021/05/04 12:47:52;;;;;;;4.53;2.33;;;15.10;1.00;;;;;;5085419;28;20423;-83
2021/05/04 12:50:33;;;;;;;4.23;2.30;;;15.10;1.00;;;;;;5093336;28;20450;-85
2021/05/04 12:53:02;;;;;;;4.47;2.13;;;15.30;1.00;;;;;;5074178;28;20439;-83
2021/05/04 12:55:29;;;;;;;2.37;2.13;;;15.60;1.00;;;;;;5067674;28;20435;-83
2021/05/04 12:58:09;;;;;;;2.83;2.30;;;16.00;1.00;;;;;;5095438;28;20493;-88
2021/05/04 13:00:38;;;;;;;2.33;2.13;;;16.70;1.00;;;;;;5097378;28;20451;-84
2021/05/04 13:03:11;;;;;;;3.77;2.80;;;17.10;1.00;;;;;;5097124;28;20436;-86
2021/05/04 13:05:38;;;;;;;4.40;2.30;;;17.20;1.00;;;;;;5080826;28;20433;-83
2021/05/04 13:08:07;;;;;;;7.20;2.23;;;16.90;1.00;;;;;;5074636;28;20507;-83
2021/05/04 13:10:45;;;;;;;2.67;1.90;;;17.10;1.00;;;;;;5086002;28;20454;-85